Map

Track Data

SID SEASON NUMBER BASIN SUBBASIN NAME ISO_TIME NATURE LAT LON WMO_WIND WMO_PRES WMO_AGENCY TRACK_TYPE DIST2LAND LANDFALL IFLAG USA_AGENCY USA_ATCF_ID USA_LAT USA_LON USA_RECORD USA_STATUS USA_WIND USA_PRES USA_SSHS USA_R34_NE USA_R34_SE USA_R34_SW USA_R34_NW USA_R50_NE USA_R50_SE USA_R50_SW USA_R50_NW USA_R64_NE USA_R64_SE USA_R64_SW USA_R64_NW USA_POCI USA_ROCI USA_RMW USA_EYE TOKYO_LAT TOKYO_LON TOKYO_GRADE TOKYO_WIND TOKYO_PRES TOKYO_R50_DIR TOKYO_R50_LONG TOKYO_R50_SHORT TOKYO_R30_DIR TOKYO_R30_LONG TOKYO_R30_SHORT TOKYO_LAND CMA_LAT CMA_LON CMA_CAT CMA_WIND CMA_PRES HKO_LAT HKO_LON HKO_CAT HKO_WIND HKO_PRES NEWDELHI_LAT NEWDELHI_LON NEWDELHI_GRADE NEWDELHI_WIND NEWDELHI_PRES NEWDELHI_CI NEWDELHI_DP NEWDELHI_POCI REUNION_LAT REUNION_LON REUNION_TYPE REUNION_WIND REUNION_PRES REUNION_TNUM REUNION_CI REUNION_RMW REUNION_R34_NE REUNION_R34_SE REUNION_R34_SW REUNION_R34_NW REUNION_R50_NE REUNION_R50_SE REUNION_R50_SW REUNION_R50_NW REUNION_R64_NE REUNION_R64_SE REUNION_R64_SW REUNION_R64_NW BOM_LAT BOM_LON BOM_TYPE BOM_WIND BOM_PRES BOM_TNUM BOM_CI BOM_RMW BOM_R34_NE BOM_R34_SE BOM_R34_SW BOM_R34_NW BOM_R50_NE BOM_R50_SE BOM_R50_SW BOM_R50_NW BOM_R64_NE BOM_R64_SE BOM_R64_SW BOM_R64_NW BOM_ROCI BOM_POCI BOM_EYE BOM_POS_METHOD BOM_PRES_METHOD NADI_LAT NADI_LON NADI_CAT NADI_WIND NADI_PRES WELLINGTON_LAT WELLINGTON_LON WELLINGTON_WIND WELLINGTON_PRES DS824_LAT DS824_LON DS824_STAGE DS824_WIND DS824_PRES TD9636_LAT TD9636_LON TD9636_STAGE TD9636_WIND TD9636_PRES TD9635_LAT TD9635_LON TD9635_WIND TD9635_PRES TD9635_ROCI NEUMANN_LAT NEUMANN_LON NEUMANN_CLASS NEUMANN_WIND NEUMANN_PRES MLC_LAT MLC_LON MLC_CLASS MLC_WIND MLC_PRES USA_GUST BOM_GUST BOM_GUST_PER REUNION_GUST REUNION_GUST_PER USA_SEAHGT USA_SEARAD_NE USA_SEARAD_SE USA_SEARAD_SW USA_SEARAD_NW STORM_SPEED STORM_DIR
1913012S13154 1913 5 SP EA NOT_NAMED 1913-01-11 23:00:00 NR -12.5000 154.000 bom main 417 417 ______O_______ -1 -12.5000 154.000 2 219
1913012S13154 1913 5 SP EA NOT_NAMED 1913-01-12 00:00:00 TS -12.5306 153.972 main 417 414 ______P__O____ -1 -12.5459 153.958 -12.5000 154.000 TC 3 221
1913012S13154 1913 5 SP EA NOT_NAMED 1913-01-12 03:00:00 TS -12.6711 153.849 main 411 409 ______P__P____ -1 -12.6835 153.833 -12.6526 153.875 TC 4 220
1913012S13154 1913 5 SP EA NOT_NAMED 1913-01-12 06:00:00 TS -12.8141 153.725 main 409 407 ______P__P____ -1 -12.8210 153.707 -12.8049 153.749 TC 4 220
1913012S13154 1913 5 SP EA NOT_NAMED 1913-01-12 09:00:00 TS -12.9576 153.603 main 414 406 ______P__P____ -1 -12.9585 153.582 -12.9566 153.624 TC 4 220
1913012S13154 1913 5 SP EA NOT_NAMED 1913-01-12 12:00:00 TS -13.1019 153.477 main 413 405 ______P__P____ -1 -13.0960 153.456 -13.1077 153.498 TC 4 220
1913012S13154 1913 5 SP EA NOT_NAMED 1913-01-12 15:00:00 TS -13.2456 153.352 main 413 413 ______P__P____ -1 -13.2335 153.331 -13.2578 153.373 TC 4 221
1913012S13154 1913 5 SP EA NOT_NAMED 1913-01-12 18:00:00 TS -13.3888 153.228 main 415 415 ______P__P____ -1 -13.3709 153.207 -13.4067 153.248 TC 4 220
1913012S13154 1913 5 SP EA NOT_NAMED 1913-01-12 21:00:00 TS -13.5313 153.103 main 416 416 ______P__P____ -1 -13.5084 153.083 -13.5542 153.124 TC 4 220
1913012S13154 1913 5 SP EA NOT_NAMED 1913-01-12 23:00:00 TS -13.6258 153.021 bom main 418 418 ______O__P____ -1 -13.6000 153.000 -13.6516 153.041 TC 4 220
1913012S13154 1913 5 SP EA NOT_NAMED 1913-01-13 00:00:00 TS -13.6729 152.979 main 427 421 ______P__O____ -1 -13.6458 152.959 -13.7000 153.000 TC 4 220
1913012S13154 1913 5 SP EA NOT_NAMED 1913-01-13 03:00:00 TS -13.8143 152.856 main 430 424 ______P__P____ -1 -13.7842 152.836 -13.8444 152.877 TC 4 220
1913012S13154 1913 5 SP EA NOT_NAMED 1913-01-13 06:00:00 TS -13.9575 152.733 main 438 438 ______P__P____ -1 -13.9257 152.713 -13.9893 152.754 TC 4 220
1913012S13154 1913 5 SP EA NOT_NAMED 1913-01-13 09:00:00 TS -14.1049 152.610 main 443 443 ______P__P____ -1 -14.0727 152.589 -14.1370 152.630 TC 4 219
1913012S13154 1913 5 SP EA NOT_NAMED 1913-01-13 12:00:00 TS -14.2587 152.486 main 458 453 ______P__P____ -1 -14.2275 152.465 -14.2899 152.507 TC 4 217
1913012S13154 1913 5 SP EA NOT_NAMED 1913-01-13 15:00:00 TS -14.4214 152.361 main 463 459 ______P__P____ -1 -14.3925 152.341 -14.4503 152.382 TC 4 216
1913012S13154 1913 5 SP EA NOT_NAMED 1913-01-13 18:00:00 TS -14.5953 152.235 main 476 476 ______P__P____ -1 -14.5700 152.214 -14.6205 152.257 TC 4 214
1913012S13154 1913 5 SP EA NOT_NAMED 1913-01-13 21:00:00 TS -14.7827 152.108 main 494 494 ______P__P____ -1 -14.7624 152.086 -14.8030 152.129 TC 5 213
1913012S13154 1913 5 SP EA NOT_NAMED 1913-01-13 23:00:00 TS -14.9163 152.022 bom main 501 501 ______O__P____ -1 -14.9000 152.000 -14.9326 152.043 TC 5 211
1913012S13154 1913 5 SP EA NOT_NAMED 1913-01-14 00:00:00 TS -14.9898 151.976 main 511 508 ______P__O____ -1 -14.9795 151.951 -15.0000 152.000 TC 6 211
1913012S13154 1913 5 SP EA NOT_NAMED 1913-01-14 03:00:00 TS -15.2350 151.827 main 526 526 ______P__P____ -1 -15.2333 151.802 -15.2367 151.852 TC 6 210
1913012S13154 1913 5 SP EA NOT_NAMED 1913-01-14 06:00:00 TS -15.4972 151.675 main 555 552 ______P__P____ -1 -15.5040 151.650 -15.4905 151.701 TC 6 209
1913012S13154 1913 5 SP EA NOT_NAMED 1913-01-14 09:00:00 TS -15.7695 151.523 main 578 553 ______P__P____ -1 -15.7843 151.498 -15.7547 151.548 TC 6 208
1913012S13154 1913 5 SP EA NOT_NAMED 1913-01-14 12:00:00 TS -16.0447 151.375 main 553 514 ______P__P____ -1 -16.0667 151.350 -16.0228 151.399 TC 6 207
1913012S13154 1913 5 SP EA NOT_NAMED 1913-01-14 15:00:00 TS -16.3158 151.233 main 514 479 ______P__P____ -1 -16.3437 151.210 -16.2879 151.256 TC 6 206
1913012S13154 1913 5 SP EA NOT_NAMED 1913-01-14 18:00:00 TS -16.5758 151.102 main 479 455 ______P__P____ -1 -16.6080 151.081 -16.5436 151.122 TC 6 205
1913012S13154 1913 5 SP EA NOT_NAMED 1913-01-14 21:00:00 TS -16.8177 150.985 main 455 430 ______P__P____ -1 -16.8521 150.966 -16.7832 151.003 TC 5 204
1913012S13154 1913 5 SP EA NOT_NAMED 1913-01-14 23:00:00 TS -16.9653 150.916 990 bom main 430 430 ______O__P____ -1 -17.0000 150.900 990 4 -16.9307 150.932 TC 5 205
1913012S13154 1913 5 SP EA NOT_NAMED 1913-01-15 00:00:00 TS -17.0305 150.887 main 430 405 ______P__O____ -1 -17.0609 150.873 -17.0000 150.900 TC 45 990 4 202
1913012S13154 1913 5 SP EA NOT_NAMED 1913-01-15 03:00:00 TS -17.1971 150.816 main 405 396 ______P__P____ -1 -17.2266 150.806 -17.1675 150.825 TC 3 201
1913012S13154 1913 5 SP EA NOT_NAMED 1913-01-15 06:00:00 TS -17.3420 150.761 main 396 371 ______P__P____ -1 -17.3705 150.755 -17.3135 150.767 TC 3 199
1913012S13154 1913 5 SP EA NOT_NAMED 1913-01-15 09:00:00 TS -17.4700 150.720 main 371 362 ______P__P____ -1 -17.4973 150.717 -17.4426 150.722 TC 3 196
1913012S13154 1913 5 SP EA NOT_NAMED 1913-01-15 12:00:00 TS -17.5857 150.688 main 362 352 ______P__P____ -1 -17.6117 150.687 -17.5597 150.689 TC 2 194
1913012S13154 1913 5 SP EA NOT_NAMED 1913-01-15 15:00:00 TS -17.6937 150.663 main 352 337 ______P__P____ -1 -17.7182 150.664 -17.6692 150.663 TC 2 190
1913012S13154 1913 5 SP EA NOT_NAMED 1913-01-15 18:00:00 TS -17.7989 150.642 main 337 328 ______P__P____ -1 -17.8217 150.642 -17.7760 150.642 TC 2 192
1913012S13154 1913 5 SP EA NOT_NAMED 1913-01-15 21:00:00 TS -17.9058 150.620 main 328 319 ______P__P____ -1 -17.9268 150.618 -17.8847 150.622 TC 2 192
1913012S13154 1913 5 SP EA NOT_NAMED 1913-01-15 23:00:00 TS -17.9803 150.604 bom main 319 319 ______O__P____ -1 -18.0000 150.600 -17.9606 150.608 TC 2 195
1913012S13154 1913 5 SP EA NOT_NAMED 1913-01-16 00:00:00 TS -18.0206 150.585 main 319 304 ______P__O____ -1 -18.0411 150.571 -18.0000 150.600 TC 3 211
1913012S13154 1913 5 SP EA NOT_NAMED 1913-01-16 03:00:00 TS -18.1503 150.496 main 295 279 ______P__P____ -1 -18.1648 150.474 -18.1358 150.519 TC 3 213
1913012S13154 1913 5 SP EA NOT_NAMED 1913-01-16 06:00:00 TS -18.2825 150.402 main 279 264 ______P__P____ -1 -18.2898 150.373 -18.2752 150.432 TC 3 213
1913012S13154 1913 5 SP EA NOT_NAMED 1913-01-16 09:00:00 TS -18.4181 150.313 main 264 240 ______P__P____ -1 -18.4178 150.278 -18.4185 150.348 TC 3 209
1913012S13154 1913 5 SP EA NOT_NAMED 1913-01-16 12:00:00 TS -18.5580 150.238 main 240 231 ______P__P____ -1 -18.5503 150.198 -18.5657 150.277 TC 3 203
1913012S13154 1913 5 SP EA NOT_NAMED 1913-01-16 15:00:00 TS -18.7031 150.186 main 231 222 ______P__P____ -1 -18.6889 150.143 -18.7173 150.228 TC 3 193
1913012S13154 1913 5 SP EA NOT_NAMED 1913-01-16 18:00:00 TS -18.8542 150.167 main 214 206 ______P__P____ -1 -18.8351 150.124 -18.8733 150.209 TC 3 0
1913012S13154 1913 5 SP EA NOT_NAMED 1913-01-16 21:00:00 TS -19.0123 150.191 main 206 198 ______P__P____ -1 -18.9905 150.151 -19.0342 150.230 TC 3 165
1913012S13154 1913 5 SP EA NOT_NAMED 1913-01-16 23:00:00 TS -19.1221 150.235 bom main 198 198 ______O__P____ -1 -19.1000 150.200 -19.1442 150.271 TC 4 158
1913012S13154 1913 5 SP EA NOT_NAMED 1913-01-17 00:00:00 TS -19.1810 150.267 main 199 192 ______P__O____ -1 -19.1621 150.234 -19.2000 150.300 TC 4 148
1913012S13154 1913 5 SP EA NOT_NAMED 1913-01-17 03:00:00 TS -19.3631 150.396 main 195 195 ______P__P____ -1 -19.3554 150.369 -19.3707 150.424 TC 5 142
1913012S13154 1913 5 SP EA NOT_NAMED 1913-01-17 06:00:00 TS -19.5483 150.566 main 208 203 ______P__P____ -1 -19.5506 150.547 -19.5452 150.591 TC 5 136
1913012S13154 1913 5 SP EA NOT_NAMED 1913-01-17 09:00:00 TS -19.7313 150.770 main 217 213 ______P__P____ -1 -19.7359 150.760 -19.7221 150.788 TC 5 131
1913012S13154 1913 5 SP EA NOT_NAMED 1913-01-17 12:00:00 TS -19.9000 151.000 bom main 229 229 ______O__O____ -1 -19.9000 151.000 -19.9000 151.000 TC 6 123
1913012S13154 1913 5 SP EA NOT_NAMED 1913-01-17 15:00:00 NR -20.0346 151.259 main 250 245 ______P_______ -1 -20.0346 151.259 TC 6 116
1913012S13154 1913 5 SP EA NOT_NAMED 1913-01-17 18:00:00 NR -20.1452 151.531 main 264 259 ______P_______ -1 -20.1452 151.531 TC 6 112
1913012S13154 1913 5 SP EA NOT_NAMED 1913-01-17 21:00:00 NR -20.2405 151.811 main 271 260 ______P_______ -1 -20.2405 151.811 TC 6 109
1913012S13154 1913 5 SP EA NOT_NAMED 1913-01-17 23:00:00 NR -20.3000 152.000 bom main 270 ______O_______ -1 -20.3000 152.000 TC 6 109

Digital Typhoon Data and Search

About IBTrACS Database

This database is a web-friendly format of International Best Track Archive for Climate Stewardship (IBTrACS), a global best track data archive curated by NOAA dating back to 1842.

Updated: 2021-10-08